Terminal Aerodrome Forecast
Issued by NWS

Home | Current Version | Previous Version | Text Only | Print | Product List | Glossary On
Versions: 1 2 3 4 5 6 7 8 9 10 11 12 13 14 15 16 17 18 19 20 21 22 23 24 25 26 27
000
FTUS43 KLSX 170500
TAFCPS
TAF
KCPS 170520Z 1706/1806 19007KT 6SM BR VCTS BKN025CB
      TEMPO 1706/1708 2SM TSRA OVC025CB
     FM170900 25005KT 3SM BR OVC007
     FM171800 32006KT 6SM BR OVC020
     FM180300 32005KT P6SM OVC035=

USA.gov is the U.S. government's official web portal to all federal, state and local government web resources and services.